createdAt,value
2022-10-21T00:00:40.352Z,6.38
2022-10-21T00:05:02.104Z,6.75
2022-10-21T00:09:24.186Z,6.45
2022-10-21T00:13:46.144Z,6.10
2022-10-21T00:18:08.151Z,6.80
2022-10-21T00:22:30.198Z,7.22
2022-10-21T00:26:52.409Z,7.72
2022-10-21T00:31:16.307Z,7.18
2022-10-21T00:35:38.379Z,7.45
2022-10-21T00:40:00.040Z,6.70
2022-10-21T00:44:22.170Z,7.40
2022-10-21T00:48:52.600Z,7.07
2022-10-21T00:53:17.183Z,7.18
2022-10-21T00:57:39.612Z,7.03
2022-10-21T01:02:01.840Z,7.15
2022-10-21T01:06:25.517Z,7.00
2022-10-21T01:10:47.747Z,6.95
2022-10-21T01:15:38.949Z,7.28
2022-10-21T01:20:26.952Z,6.80
2022-10-21T01:25:20.404Z,7.47
2022-10-21T01:30:26.116Z,6.57
2022-10-21T01:35:17.813Z,6.80
2022-10-21T01:39:52.243Z,6.45
2022-10-21T01:44:44.074Z,6.13
2022-10-21T01:49:18.279Z,7.47
2022-10-21T01:53:48.844Z,6.75
2022-10-21T01:58:21.516Z,6.68
2022-10-21T02:02:48.104Z,6.63
2022-10-21T02:07:09.909Z,7.22
2022-10-21T02:11:35.570Z,7.00
2022-10-21T02:16:03.781Z,6.68
2022-10-21T02:20:29.457Z,6.85
2022-10-21T02:24:54.870Z,6.43
2022-10-21T02:29:28.352Z,6.57
2022-10-21T02:34:30.123Z,7.13
2022-10-21T02:38:59.075Z,7.07
2022-10-21T02:43:27.519Z,6.93
2022-10-21T02:47:50.595Z,7.90
2022-10-21T02:52:12.519Z,7.20
2022-10-21T02:56:35.496Z,7.60
2022-10-21T03:00:57.678Z,7.50
2022-10-21T03:05:19.731Z,6.85
2022-10-21T03:09:41.864Z,7.03
2022-10-21T03:14:03.896Z,7.35
2022-10-21T03:18:25.823Z,7.63
2022-10-21T03:22:48.051Z,7.35
2022-10-21T03:27:09.854Z,7.90
2022-10-21T03:31:32.036Z,7.32
2022-10-21T03:35:54.768Z,7.00
2022-10-21T03:40:16.567Z,7.18
2022-10-21T03:44:38.245Z,8.10
2022-10-21T03:49:04.178Z,8.52
2022-10-21T03:53:42.769Z,7.82
2022-10-21T03:58:05.328Z,7.97
2022-10-21T04:02:27.602Z,7.72
2022-10-21T04:06:49.622Z,7.15
2022-10-21T04:11:11.501Z,7.50
2022-10-21T04:15:33.507Z,7.55
2022-10-21T04:19:55.480Z,6.90
2022-10-21T04:24:17.396Z,7.53
2022-10-21T04:28:39.438Z,7.28
2022-10-21T04:33:01.389Z,6.88
2022-10-21T04:37:23.563Z,7.15
2022-10-21T04:41:45.889Z,7.25
2022-10-21T04:46:12.265Z,7.28
2022-10-21T04:50:35.302Z,7.63
2022-10-21T04:54:56.936Z,7.30
2022-10-21T04:59:18.989Z,8.05
2022-10-21T05:03:40.928Z,7.35
2022-10-21T05:08:02.973Z,6.95
2022-10-21T05:12:25.001Z,7.47
2022-10-21T05:16:47.212Z,7.70
2022-10-21T05:21:09.191Z,8.70
2022-10-21T05:25:34.174Z,10.45
2022-10-21T05:29:58.405Z,10.75
2022-10-21T05:34:20.277Z,11.32
2022-10-21T05:38:42.156Z,12.52
2022-10-21T05:43:04.011Z,12.27
2022-10-21T05:47:25.918Z,11.43
2022-10-21T05:51:47.834Z,12.57
2022-10-21T05:56:09.428Z,11.93
2022-10-21T06:00:31.484Z,12.40
2022-10-21T06:04:53.218Z,11.45
2022-10-21T06:09:15.176Z,11.32
2022-10-21T06:18:17.161Z,9.20
2022-10-21T06:22:39.002Z,10.63
2022-10-21T06:27:01.022Z,8.77
2022-10-21T06:31:23.052Z,9.00
2022-10-21T06:35:44.935Z,8.35
2022-10-21T06:40:07.256Z,8.55
2022-10-21T06:44:29.338Z,8.07
2022-10-21T06:48:51.147Z,7.03
2022-10-21T06:53:13.077Z,7.72
2022-10-21T06:57:35.157Z,7.32
2022-10-21T07:02:01.332Z,7.53
2022-10-21T07:06:23.416Z,7.28
2022-10-21T07:10:46.113Z,6.57
2022-10-21T07:15:08.489Z,7.45
2022-10-21T07:19:30.131Z,6.38
2022-10-21T07:23:56.509Z,5.78
2022-10-21T07:28:20.703Z,5.85
2022-10-21T07:32:42.994Z,6.13
2022-10-21T07:37:04.904Z,5.82
2022-10-21T07:41:34.495Z,6.20
2022-10-21T07:46:01.867Z,6.63
2022-10-21T07:50:26.518Z,6.68
2022-10-21T07:54:48.579Z,6.20
2022-10-21T07:59:13.444Z,6.55
2022-10-21T08:03:35.501Z,5.95
2022-10-21T08:07:59.003Z,6.22
2022-10-21T08:12:20.822Z,5.80
2022-10-21T08:16:42.548Z,5.40
2022-10-21T08:21:05.222Z,5.03
2022-10-21T08:25:30.143Z,4.90
2022-10-21T08:29:52.066Z,4.28
2022-10-21T08:34:14.218Z,4.75
2022-10-21T08:38:36.542Z,4.50
2022-10-21T08:43:17.202Z,6.28
2022-10-21T08:47:48.478Z,4.35
2022-10-21T08:52:17.263Z,4.85
2022-10-21T08:56:38.909Z,3.70
2022-10-21T09:01:31.720Z,3.75
2022-10-21T09:06:10.867Z,4.53
2022-10-21T09:11:00.462Z,4.20
2022-10-21T09:15:33.115Z,4.05
2022-10-21T09:20:23.578Z,3.90
2022-10-21T09:25:19.019Z,4.53
2022-10-21T09:29:46.893Z,4.00
2022-10-21T09:34:31.232Z,4.22
2022-10-21T09:39:12.679Z,4.47
2022-10-21T09:43:34.482Z,4.50
2022-10-21T09:48:22.591Z,4.85
2022-10-21T09:53:02.840Z,5.63
2022-10-21T09:58:01.936Z,4.40
2022-10-21T10:02:50.047Z,4.68
2022-10-21T10:07:36.815Z,4.22
2022-10-21T10:12:02.776Z,4.65
2022-10-21T10:16:31.124Z,4.20
2022-10-21T10:21:12.987Z,4.22
2022-10-21T10:25:38.663Z,3.83
2022-10-21T10:30:02.134Z,3.97
2022-10-21T10:34:38.704Z,4.20
2022-10-21T10:39:02.625Z,4.70
2022-10-21T10:43:29.917Z,5.45
2022-10-21T10:48:03.329Z,4.65
2022-10-21T10:52:26.321Z,4.88
2022-10-21T10:57:11.565Z,4.45
2022-10-21T11:01:43.163Z,5.07
2022-10-21T11:06:21.747Z,5.13
2022-10-21T11:10:57.537Z,4.63
2022-10-21T11:15:43.803Z,4.57
2022-10-21T11:20:40.634Z,5.28
2022-10-21T11:25:48.895Z,5.40
2022-10-21T11:30:20.884Z,4.65
2022-10-21T11:35:38.909Z,4.13
2022-10-21T11:40:16.111Z,4.82
2022-10-21T11:45:06.546Z,4.75
2022-10-21T11:50:07.564Z,4.97
2022-10-21T11:55:08.624Z,4.63
2022-10-21T12:00:33.780Z,5.03
2022-10-21T12:05:11.657Z,4.72
2022-10-21T12:09:54.153Z,5.93
2022-10-21T12:14:38.324Z,5.97
2022-10-21T12:19:06.935Z,6.55
2022-10-21T12:23:31.268Z,6.32
2022-10-21T12:28:17.104Z,7.80
2022-10-21T12:33:08.725Z,9.75
2022-10-21T12:37:52.677Z,9.20
2022-10-21T12:42:19.018Z,9.55
2022-10-21T12:46:48.350Z,9.43
2022-10-21T12:51:28.604Z,10.75
2022-10-21T12:55:55.257Z,11.30
2022-10-21T13:00:37.104Z,11.10
2022-10-21T13:04:59.212Z,12.18
2022-10-21T13:09:52.105Z,12.55
2022-10-21T13:14:16.585Z,12.55
2022-10-21T13:18:59.638Z,11.68
2022-10-21T13:23:37.201Z,12.10
2022-10-21T13:28:13.532Z,13.65
2022-10-21T13:32:37.684Z,13.45
2022-10-21T13:37:00.395Z,12.60
2022-10-21T13:41:27.854Z,13.27
2022-10-21T13:45:57.122Z,13.90
2022-10-21T13:50:31.017Z,13.77
2022-10-21T13:55:01.373Z,13.50
2022-10-21T13:59:30.041Z,13.68
2022-10-21T14:03:54.067Z,14.98
2022-10-21T14:08:40.002Z,13.80
2022-10-21T14:13:04.269Z,16.33
2022-10-21T14:17:27.614Z,15.48
2022-10-21T14:21:54.109Z,16.10
2022-10-21T14:26:16.429Z,17.17
2022-10-21T14:30:39.482Z,18.90
2022-10-21T14:35:26.435Z,17.90
2022-10-21T14:39:48.172Z,18.17
2022-10-21T14:44:31.523Z,19.65
2022-10-21T14:49:04.792Z,16.73
2022-10-21T14:53:33.317Z,19.10
2022-10-21T14:58:14.574Z,18.15
2022-10-21T15:02:38.703Z,18.73
2022-10-21T15:07:01.872Z,17.52
2022-10-21T15:11:26.657Z,18.88
2022-10-21T15:15:55.949Z,18.48
2022-10-21T15:20:17.722Z,18.30
2022-10-21T15:24:40.395Z,18.33
2022-10-21T15:29:14.503Z,16.40
2022-10-21T15:33:36.042Z,17.10
2022-10-21T15:37:58.154Z,16.48
2022-10-21T15:42:20.339Z,17.23
2022-10-21T15:46:47.063Z,17.38
2022-10-21T15:51:09.288Z,17.58
2022-10-21T15:55:36.359Z,16.80
2022-10-21T15:59:58.491Z,16.90
2022-10-21T16:04:20.815Z,16.02
2022-10-21T16:08:42.984Z,16.02
2022-10-21T16:13:05.085Z,14.68
2022-10-21T16:17:28.704Z,15.23
2022-10-21T16:21:50.887Z,15.30
2022-10-21T16:26:23.846Z,16.60
2022-10-21T16:30:45.501Z,15.82
2022-10-21T16:35:12.333Z,15.48
2022-10-21T16:39:34.432Z,15.45
2022-10-21T16:43:56.458Z,13.55
2022-10-21T16:48:18.534Z,12.82
2022-10-21T16:52:40.701Z,13.57
2022-10-21T16:57:06.177Z,12.57
2022-10-21T17:01:29.080Z,13.50
2022-10-21T17:05:52.486Z,13.60
2022-10-21T17:10:14.184Z,13.55
2022-10-21T17:14:36.286Z,10.63
2022-10-21T17:18:58.382Z,12.05
2022-10-21T17:23:19.960Z,11.02
2022-10-21T17:27:42.157Z,10.05
2022-10-21T17:32:05.594Z,9.57
2022-10-21T17:36:27.642Z,7.72
2022-10-21T17:40:49.611Z,8.50
2022-10-21T17:45:13.110Z,8.68
2022-10-21T17:49:35.150Z,7.53
2022-10-21T17:53:57.285Z,6.90
2022-10-21T17:58:19.601Z,7.82
2022-10-21T18:02:41.933Z,7.82
2022-10-21T18:07:07.223Z,8.10
2022-10-21T18:11:31.481Z,7.85
2022-10-21T18:15:54.535Z,7.00
2022-10-21T18:20:17.208Z,7.88
2022-10-21T18:24:39.349Z,7.13
2022-10-21T18:29:05.133Z,7.65
2022-10-21T18:33:28.212Z,7.30
2022-10-21T18:37:52.310Z,7.18
2022-10-21T18:42:14.756Z,7.20
2022-10-21T18:46:40.126Z,8.70
2022-10-21T18:51:10.468Z,7.95
2022-10-21T18:55:32.488Z,7.82
2022-10-21T18:59:54.966Z,9.15
2022-10-21T19:04:16.834Z,7.53
2022-10-21T19:08:39.069Z,8.43
2022-10-21T19:13:00.641Z,8.02
2022-10-21T19:17:23.618Z,8.20
2022-10-21T19:21:45.611Z,8.00
2022-10-21T19:26:10.375Z,7.80
2022-10-21T19:30:32.376Z,7.68
2022-10-21T19:34:54.053Z,7.80
2022-10-21T19:39:16.994Z,8.05
2022-10-21T19:43:39.637Z,9.10
2022-10-21T19:48:01.993Z,8.95
2022-10-21T19:52:23.611Z,9.15
2022-10-21T19:56:45.493Z,10.05
2022-10-21T20:01:14.057Z,8.82
2022-10-21T20:05:40.509Z,9.50
2022-10-21T20:10:02.408Z,9.50
2022-10-21T20:14:24.085Z,10.10
2022-10-21T20:18:46.615Z,9.60
2022-10-21T20:23:08.605Z,11.20
2022-10-21T20:27:30.556Z,10.18
2022-10-21T20:31:52.519Z,9.93
2022-10-21T20:36:19.227Z,10.32
2022-10-21T20:40:40.978Z,9.57
2022-10-21T20:45:04.300Z,9.10
2022-10-21T20:49:26.274Z,8.63
2022-10-21T20:54:01.044Z,8.65
2022-10-21T20:58:22.700Z,8.18
2022-10-21T21:02:44.910Z,9.23
2022-10-21T21:07:07.024Z,8.40
2022-10-21T21:11:29.508Z,8.70
2022-10-21T21:15:51.122Z,7.65
2022-10-21T21:20:13.101Z,7.53
2022-10-21T21:24:35.048Z,7.55
2022-10-21T21:28:57.668Z,7.00
2022-10-21T21:33:19.446Z,6.50
2022-10-21T21:37:41.395Z,6.85
2022-10-21T21:42:03.538Z,6.93
2022-10-21T21:46:26.256Z,6.50
2022-10-21T21:50:50.431Z,7.45
2022-10-21T21:55:12.066Z,6.22
2022-10-21T21:59:34.295Z,6.30
2022-10-21T22:03:56.663Z,6.90
2022-10-21T22:08:18.222Z,7.20
2022-10-21T22:12:40.498Z,6.07
2022-10-21T22:17:02.262Z,6.85
2022-10-21T22:21:24.974Z,6.00
2022-10-21T22:25:48.970Z,6.10
2022-10-21T22:30:16.692Z,6.75
2022-10-21T22:34:39.435Z,6.18
2022-10-21T22:39:04.255Z,6.10
2022-10-21T22:43:27.309Z,6.38
2022-10-21T22:47:49.358Z,6.63
2022-10-21T22:52:11.383Z,7.10
2022-10-21T22:56:33.390Z,6.25
2022-10-21T23:05:22.934Z,7.95
2022-10-21T23:09:44.563Z,6.85
2022-10-21T23:14:08.787Z,7.63
2022-10-21T23:18:31.148Z,9.10
2022-10-21T23:22:53.075Z,7.55
2022-10-21T23:27:15.371Z,6.40
2022-10-21T23:31:37.260Z,6.78
2022-10-21T23:35:59.425Z,7.30
2022-10-21T23:40:21.795Z,6.80
2022-10-21T23:44:43.638Z,6.75
2022-10-21T23:49:06.083Z,7.50
2022-10-21T23:53:27.930Z,6.53
2022-10-21T23:57:49.916Z,6.10
